sensor_id;sensor_type;location;lat;lon;timestamp;pressure;altitude;pressure_sealevel;temperature;humidity
71772;BME280;59606;52.138;5.424;2023-01-28T00:00:50;103173.16;;;2.91;84.16
71772;BME280;59606;52.138;5.424;2023-01-28T00:03:17;103171.44;;;2.90;83.84
71772;BME280;59606;52.138;5.424;2023-01-28T00:05:43;103174.88;;;2.89;84.01
71772;BME280;59606;52.138;5.424;2023-01-28T00:08:10;103173.16;;;2.90;84.13
71772;BME280;59606;52.138;5.424;2023-01-28T00:10:40;103175.69;;;2.87;83.73
71772;BME280;59606;52.138;5.424;2023-01-28T00:13:11;103175.69;;;2.87;83.73
71772;BME280;59606;52.138;5.424;2023-01-28T00:15:38;103177.41;;;2.88;83.62
71772;BME280;59606;52.138;5.424;2023-01-28T00:18:04;103178.25;;;2.87;84.26
71772;BME280;59606;52.138;5.424;2023-01-28T00:20:31;103179.97;;;2.88;84.28
71772;BME280;59606;52.138;5.424;2023-01-28T00:22:57;103174.00;;;2.89;83.95
71772;BME280;59606;52.138;5.424;2023-01-28T00:25:24;103180.00;;;2.89;83.94
71772;BME280;59606;52.138;5.424;2023-01-28T00:27:50;103176.59;;;2.89;84.16
71772;BME280;59606;52.138;5.424;2023-01-28T00:30:17;103184.31;;;2.89;84.08
71772;BME280;59606;52.138;5.424;2023-01-28T00:32:44;103176.53;;;2.87;84.14
71772;BME280;59606;52.138;5.424;2023-01-28T00:35:11;103185.13;;;2.88;84.33
71772;BME280;59606;52.138;5.424;2023-01-28T00:37:39;103182.50;;;2.84;83.94
71772;BME280;59606;52.138;5.424;2023-01-28T00:40:06;103181.69;;;2.86;84.34
71772;BME280;59606;52.138;5.424;2023-01-28T00:42:35;103181.72;;;2.89;84.84
71772;BME280;59606;52.138;5.424;2023-01-28T00:45:02;103173.09;;;2.87;84.65
71772;BME280;59606;52.138;5.424;2023-01-28T00:47:29;103175.69;;;2.88;85.12
71772;BME280;59606;52.138;5.424;2023-01-28T00:49:55;103175.69;;;2.87;85.19
71772;BME280;59606;52.138;5.424;2023-01-28T00:52:22;103181.72;;;2.89;85.64
71772;BME280;59606;52.138;5.424;2023-01-28T00:54:48;103179.97;;;2.86;85.25
71772;BME280;59606;52.138;5.424;2023-01-28T00:57:15;103177.34;;;2.84;85.66
71772;BME280;59606;52.138;5.424;2023-01-28T00:59:41;103177.34;;;2.83;85.21
71772;BME280;59606;52.138;5.424;2023-01-28T01:02:08;103171.34;;;2.82;85.24
71772;BME280;59606;52.138;5.424;2023-01-28T01:04:39;103169.59;;;2.81;85.58
71772;BME280;59606;52.138;5.424;2023-01-28T01:07:06;103171.28;;;2.81;85.24
71772;BME280;59606;52.138;5.424;2023-01-28T01:09:32;103163.56;;;2.81;84.97
71772;BME280;59606;52.138;5.424;2023-01-28T01:11:59;103160.13;;;2.79;85.22
71772;BME280;59606;52.138;5.424;2023-01-28T01:14:25;103155.84;;;2.79;85.08
71772;BME280;59606;52.138;5.424;2023-01-28T01:16:52;103169.56;;;2.80;84.56
71772;BME280;59606;52.138;5.424;2023-01-28T01:19:18;103166.94;;;2.77;84.91
71772;BME280;59606;52.138;5.424;2023-01-28T01:21:45;103162.66;;;2.77;84.66
71772;BME280;59606;52.138;5.424;2023-01-28T01:24:15;103162.66;;;2.77;85.17
71772;BME280;59606;52.138;5.424;2023-01-28T01:26:42;103168.66;;;2.78;85.09
71772;BME280;59606;52.138;5.424;2023-01-28T01:29:08;103172.09;;;2.77;84.80
71772;BME280;59606;52.138;5.424;2023-01-28T01:31:35;103163.47;;;2.73;84.41
71772;BME280;59606;52.138;5.424;2023-01-28T01:34:02;103171.19;;;2.73;84.24
71772;BME280;59606;52.138;5.424;2023-01-28T01:36:28;103175.44;;;2.70;84.09
71772;BME280;59606;52.138;5.424;2023-01-28T01:38:55;103175.44;;;2.70;84.07
71772;BME280;59606;52.138;5.424;2023-01-28T01:41:30;103168.63;;;2.73;83.63
71772;BME280;59606;52.138;5.424;2023-01-28T01:43:59;103172.91;;;2.73;83.56
71772;BME280;59606;52.138;5.424;2023-01-28T01:48:54;103176.28;;;2.70;83.52
71772;BME280;59606;52.138;5.424;2023-01-28T01:51:25;103181.44;;;2.69;83.42
71772;BME280;59606;52.138;5.424;2023-01-28T01:53:57;103191.72;;;2.70;83.49
71772;BME280;59606;52.138;5.424;2023-01-28T01:56:31;103182.28;;;2.71;83.54
71772;BME280;59606;52.138;5.424;2023-01-28T01:58:59;103189.16;;;2.70;83.58
71772;BME280;59606;52.138;5.424;2023-01-28T02:01:29;103187.38;;;2.68;83.31
71772;BME280;59606;52.138;5.424;2023-01-28T02:04:03;103184.81;;;2.66;83.43
71772;BME280;59606;52.138;5.424;2023-01-28T02:06:32;103192.53;;;2.66;83.08
71772;BME280;59606;52.138;5.424;2023-01-28T02:08:59;103201.13;;;2.68;83.26
71772;BME280;59606;52.138;5.424;2023-01-28T02:11:29;103186.53;;;2.66;82.76
71772;BME280;59606;52.138;5.424;2023-01-28T02:13:59;103192.53;;;2.66;82.63
71772;BME280;59606;52.138;5.424;2023-01-28T02:16:27;103195.94;;;2.65;82.93
71772;BME280;59606;52.138;5.424;2023-01-28T02:18:54;103197.69;;;2.66;83.08
71772;BME280;59606;52.138;5.424;2023-01-28T02:21:36;103189.09;;;2.66;82.73
71772;BME280;59606;52.138;5.424;2023-01-28T02:29:49;103195.03;;;2.62;82.25
71772;BME280;59606;52.138;5.424;2023-01-28T02:32:21;103200.16;;;2.60;82.25
71772;BME280;59606;52.138;5.424;2023-01-28T02:35:12;103193.28;;;2.59;82.17
71772;BME280;59606;52.138;5.424;2023-01-28T02:37:52;103192.41;;;2.58;81.98
71772;BME280;59606;52.138;5.424;2023-01-28T02:40:33;103201.81;;;2.58;82.05
71772;BME280;59606;52.138;5.424;2023-01-28T02:43:38;103191.50;;;2.56;81.91
71772;BME280;59606;52.138;5.424;2023-01-28T02:46:16;103199.22;;;2.56;81.99
71772;BME280;59606;52.138;5.424;2023-01-28T02:49:05;103201.81;;;2.56;82.14
71772;BME280;59606;52.138;5.424;2023-01-28T02:51:42;103206.09;;;2.56;81.53
71772;BME280;59606;52.138;5.424;2023-01-28T02:57:37;103200.91;;;2.54;81.63
71772;BME280;59606;52.138;5.424;2023-01-28T03:00:25;103197.47;;;2.54;81.57
71772;BME280;59606;52.138;5.424;2023-01-28T03:03:21;103186.31;;;2.53;81.99
71772;BME280;59606;52.138;5.424;2023-01-28T03:06:01;103182.88;;;2.53;81.27
71772;BME280;59606;52.138;5.424;2023-01-28T03:08:34;103176.00;;;2.52;81.75
71772;BME280;59606;52.138;5.424;2023-01-28T03:11:21;103185.41;;;2.51;82.03
71772;BME280;59606;52.138;5.424;2023-01-28T03:14:07;103186.25;;;2.50;81.88
71772;BME280;59606;52.138;5.424;2023-01-28T03:16:54;103186.25;;;2.50;82.07
71772;BME280;59606;52.138;5.424;2023-01-28T03:19:41;103186.25;;;2.50;81.92
71772;BME280;59606;52.138;5.424;2023-01-28T03:22:28;103187.97;;;2.48;81.75
71772;BME280;59606;52.138;5.424;2023-01-28T03:25:18;103189.69;;;2.49;81.69
71772;BME280;59606;52.138;5.424;2023-01-28T03:28:08;103188.81;;;2.49;81.71
71772;BME280;59606;52.138;5.424;2023-01-28T03:31:03;103190.50;;;2.47;82.44
71772;BME280;59606;52.138;5.424;2023-01-28T03:33:50;103193.94;;;2.47;82.35
71772;BME280;59606;52.138;5.424;2023-01-28T03:36:37;103201.63;;;2.46;81.72
71772;BME280;59606;52.138;5.424;2023-01-28T03:39:26;103187.88;;;2.44;81.82
71772;BME280;59606;52.138;5.424;2023-01-28T03:42:11;103184.44;;;2.45;81.72
71772;BME280;59606;52.138;5.424;2023-01-28T03:44:39;103192.22;;;2.48;82.23
71772;BME280;59606;52.138;5.424;2023-01-28T03:47:18;103192.16;;;2.45;81.75
71772;BME280;59606;52.138;5.424;2023-01-28T03:49:47;103189.56;;;2.43;81.51
71772;BME280;59606;52.138;5.424;2023-01-28T03:52:16;103193.00;;;2.44;81.47
71772;BME280;59606;52.138;5.424;2023-01-28T03:54:44;103195.59;;;2.44;81.60
71772;BME280;59606;52.138;5.424;2023-01-28T03:57:21;103192.94;;;2.41;81.95
71772;BME280;59606;52.138;5.424;2023-01-28T03:59:48;103193.81;;;2.41;81.30
71772;BME280;59606;52.138;5.424;2023-01-28T04:02:16;103188.72;;;2.43;81.19
71772;BME280;59606;52.138;5.424;2023-01-28T04:04:42;103193.84;;;2.43;81.53
71772;BME280;59606;52.138;5.424;2023-01-28T04:07:10;103204.94;;;2.40;80.98
71772;BME280;59606;52.138;5.424;2023-01-28T04:09:37;103195.47;;;2.38;80.59
71772;BME280;59606;52.138;5.424;2023-01-28T04:12:04;103195.41;;;2.34;80.45
71772;BME280;59606;52.138;5.424;2023-01-28T04:14:31;103194.59;;;2.35;80.46
71772;BME280;59606;52.138;5.424;2023-01-28T04:16:58;103206.59;;;2.35;80.69
71772;BME280;59606;52.138;5.424;2023-01-28T04:19:25;103207.47;;;2.37;80.55
71772;BME280;59606;52.138;5.424;2023-01-28T04:21:52;103209.19;;;2.38;80.82
71772;BME280;59606;52.138;5.424;2023-01-28T04:24:22;103209.13;;;2.33;80.52
71772;BME280;59606;52.138;5.424;2023-01-28T04:26:49;103211.63;;;2.30;79.79
71772;BME280;59606;52.138;5.424;2023-01-28T04:29:15;103221.06;;;2.30;80.23
71772;BME280;59606;52.138;5.424;2023-01-28T04:31:42;103223.63;;;2.30;80.08
71772;BME280;59606;52.138;5.424;2023-01-28T04:34:08;103225.34;;;2.29;79.70
71772;BME280;59606;52.138;5.424;2023-01-28T04:36:35;103219.28;;;2.27;79.62
71772;BME280;59606;52.138;5.424;2023-01-28T04:39:02;103233.03;;;2.28;79.69
71772;BME280;59606;52.138;5.424;2023-01-28T04:41:28;103231.28;;;2.27;79.98
71772;BME280;59606;52.138;5.424;2023-01-28T04:43:55;103227.88;;;2.28;80.10
71772;BME280;59606;52.138;5.424;2023-01-28T04:46:21;103227.88;;;2.28;79.97
71772;BME280;59606;52.138;5.424;2023-01-28T04:48:48;103222.72;;;2.26;79.62
71772;BME280;59606;52.138;5.424;2023-01-28T04:51:14;103219.22;;;2.23;79.14
71772;BME280;59606;52.138;5.424;2023-01-28T04:53:41;103220.88;;;2.21;78.81
71772;BME280;59606;52.138;5.424;2023-01-28T04:56:07;103223.44;;;2.19;78.91
71772;BME280;59606;52.138;5.424;2023-01-28T04:58:33;103212.31;;;2.20;79.40
71772;BME280;59606;52.138;5.424;2023-01-28T05:01:00;103212.31;;;2.20;79.14
71772;BME280;59606;52.138;5.424;2023-01-28T05:03:26;103210.59;;;2.21;79.19
71772;BME280;59606;52.138;5.424;2023-01-28T05:05:53;103197.72;;;2.19;79.04
71772;BME280;59606;52.138;5.424;2023-01-28T05:08:19;103203.75;;;2.20;79.39
71772;BME280;59606;52.138;5.424;2023-01-28T05:10:46;103208.94;;;2.23;80.01
71772;BME280;59606;52.138;5.424;2023-01-28T05:13:12;103203.00;;;2.25;80.46
71772;BME280;59606;52.138;5.424;2023-01-28T05:15:39;103209.00;;;2.26;80.73
71772;BME280;59606;52.138;5.424;2023-01-28T05:18:06;103205.56;;;2.25;80.83
71772;BME280;59606;52.138;5.424;2023-01-28T05:20:32;103200.44;;;2.27;81.04
71772;BME280;59606;52.138;5.424;2023-01-28T05:22:59;103204.72;;;2.26;81.35
71772;BME280;59606;52.138;5.424;2023-01-28T05:25:25;103207.31;;;2.28;81.20
71772;BME280;59606;52.138;5.424;2023-01-28T05:27:53;103213.22;;;2.24;81.13
71772;BME280;59606;52.138;5.424;2023-01-28T05:30:19;103212.31;;;2.20;81.09
71772;BME280;59606;52.138;5.424;2023-01-28T05:32:46;103203.75;;;2.20;81.13
71772;BME280;59606;52.138;5.424;2023-01-28T05:35:12;103209.72;;;2.19;81.44
71772;BME280;59606;52.138;5.424;2023-01-28T05:37:40;103222.59;;;2.20;81.35
71772;BME280;59606;52.138;5.424;2023-01-28T05:40:06;103222.53;;;2.16;81.29
71772;BME280;59606;52.138;5.424;2023-01-28T05:42:33;103221.63;;;2.13;81.21
71772;BME280;59606;52.138;5.424;2023-01-28T05:45:00;103219.00;;;2.10;80.41
71772;BME280;59606;52.138;5.424;2023-01-28T05:47:26;103207.00;;;2.11;80.36
71772;BME280;59606;52.138;5.424;2023-01-28T05:49:52;103207.88;;;2.11;79.95
71772;BME280;59606;52.138;5.424;2023-01-28T05:52:19;103214.75;;;2.12;80.09
71772;BME280;59606;52.138;5.424;2023-01-28T05:54:45;103215.59;;;2.11;80.29
71772;BME280;59606;52.138;5.424;2023-01-28T05:57:12;103202.69;;;2.10;80.15
71772;BME280;59606;52.138;5.424;2023-01-28T05:59:39;103211.25;;;2.09;80.12
71772;BME280;59606;52.138;5.424;2023-01-28T06:02:05;103220.69;;;2.08;79.83
71772;BME280;59606;52.138;5.424;2023-01-28T06:04:32;103212.97;;;2.08;79.99
71772;BME280;59606;52.138;5.424;2023-01-28T06:06:58;103212.97;;;2.08;79.98
71772;BME280;59606;52.138;5.424;2023-01-28T06:09:25;103204.41;;;2.08;80.07
71772;BME280;59606;52.138;5.424;2023-01-28T06:11:51;103211.22;;;2.07;80.35
71772;BME280;59606;52.138;5.424;2023-01-28T06:14:18;103221.50;;;2.07;79.86
71772;BME280;59606;52.138;5.424;2023-01-28T06:16:44;103218.94;;;2.07;80.75
71772;BME280;59606;52.138;5.424;2023-01-28T06:19:11;103222.41;;;2.08;80.17
71772;BME280;59606;52.138;5.424;2023-01-28T06:21:37;103218.88;;;2.04;80.59
71772;BME280;59606;52.138;5.424;2023-01-28T06:24:04;103223.22;;;2.07;80.84
71772;BME280;59606;52.138;5.424;2023-01-28T06:26:30;103214.63;;;2.05;80.79
71772;BME280;59606;52.138;5.424;2023-01-28T06:28:57;103219.75;;;2.05;81.18
71772;BME280;59606;52.138;5.424;2023-01-28T06:31:23;103209.50;;;2.06;81.33
71772;BME280;59606;52.138;5.424;2023-01-28T06:33:50;103218.94;;;2.07;81.16
71772;BME280;59606;52.138;5.424;2023-01-28T06:36:16;103217.19;;;2.05;81.22
71772;BME280;59606;52.138;5.424;2023-01-28T06:38:43;103224.91;;;2.05;80.79
71772;BME280;59606;52.138;5.424;2023-01-28T06:41:09;103229.19;;;2.06;81.75
71772;BME280;59606;52.138;5.424;2023-01-28T06:43:36;103235.19;;;2.06;81.47
71772;BME280;59606;52.138;5.424;2023-01-28T06:46:02;103231.69;;;2.01;80.97
71772;BME280;59606;52.138;5.424;2023-01-28T06:48:29;103239.28;;;1.97;81.12
71772;BME280;59606;52.138;5.424;2023-01-28T06:50:55;103235.00;;;1.97;81.38
71772;BME280;59606;52.138;5.424;2023-01-28T06:53:22;103236.72;;;1.95;81.20
71772;BME280;59606;52.138;5.424;2023-01-28T06:55:48;103241.84;;;1.95;81.02
71772;BME280;59606;52.138;5.424;2023-01-28T06:58:15;103247.84;;;1.96;80.84
71772;BME280;59606;52.138;5.424;2023-01-28T07:00:42;103252.16;;;1.97;81.14
71772;BME280;59606;52.138;5.424;2023-01-28T07:03:08;103259.88;;;1.97;80.96
71772;BME280;59606;52.138;5.424;2023-01-28T07:05:35;103259.00;;;1.96;81.09
71772;BME280;59606;52.138;5.424;2023-01-28T07:08:01;103257.22;;;1.94;80.89
71772;BME280;59606;52.138;5.424;2023-01-28T07:10:28;103245.22;;;1.93;80.90
71772;BME280;59606;52.138;5.424;2023-01-28T07:12:55;103255.50;;;1.93;81.16
71772;BME280;59606;52.138;5.424;2023-01-28T07:15:22;103250.31;;;1.91;81.03
71772;BME280;59606;52.138;5.424;2023-01-28T07:17:48;103252.03;;;1.91;81.15
71772;BME280;59606;52.138;5.424;2023-01-28T07:20:15;103248.56;;;1.88;80.80
71772;BME280;59606;52.138;5.424;2023-01-28T07:22:43;103257.94;;;1.86;80.55
71772;BME280;59606;52.138;5.424;2023-01-28T07:25:12;103257.94;;;1.85;80.23
71772;BME280;59606;52.138;5.424;2023-01-28T07:27:45;103264.72;;;1.81;80.31
71772;BME280;59606;52.138;5.424;2023-01-28T07:30:11;103257.81;;;1.80;80.31
71772;BME280;59606;52.138;5.424;2023-01-28T07:32:38;103254.44;;;1.81;80.58
71772;BME280;59606;52.138;5.424;2023-01-28T07:35:05;103260.44;;;1.83;80.58
71772;BME280;59606;52.138;5.424;2023-01-28T07:37:32;103270.78;;;1.85;80.46
71772;BME280;59606;52.138;5.424;2023-01-28T07:39:59;103274.22;;;1.85;80.81
71772;BME280;59606;52.138;5.424;2023-01-28T07:42:25;103281.06;;;1.85;80.94
71772;BME280;59606;52.138;5.424;2023-01-28T07:44:52;103274.22;;;1.85;81.04
71772;BME280;59606;52.138;5.424;2023-01-28T07:47:18;103289.66;;;1.87;81.15
71772;BME280;59606;52.138;5.424;2023-01-28T07:49:45;103290.44;;;1.84;80.67
71772;BME280;59606;52.138;5.424;2023-01-28T07:52:11;103285.31;;;1.84;80.68
71772;BME280;59606;52.138;5.424;2023-01-28T07:54:37;103291.34;;;1.85;80.94
71772;BME280;59606;52.138;5.424;2023-01-28T07:57:07;103285.34;;;1.86;80.46
71772;BME280;59606;52.138;5.424;2023-01-28T07:59:37;103292.22;;;1.87;80.82
71772;BME280;59606;52.138;5.424;2023-01-28T08:02:03;103285.41;;;1.89;81.17
71772;BME280;59606;52.138;5.424;2023-01-28T08:04:30;103282.88;;;1.91;81.62
71772;BME280;59606;52.138;5.424;2023-01-28T08:06:56;103281.13;;;1.89;81.27
71772;BME280;59606;52.138;5.424;2023-01-28T08:09:23;103284.63;;;1.92;81.57
71772;BME280;59606;52.138;5.424;2023-01-28T08:11:49;103282.91;;;1.92;81.61
71772;BME280;59606;52.138;5.424;2023-01-28T08:14:16;103285.50;;;1.94;81.72
71772;BME280;59606;52.138;5.424;2023-01-28T08:16:42;103288.06;;;1.94;81.35
71772;BME280;59606;52.138;5.424;2023-01-28T08:19:09;103293.22;;;1.94;81.30
71772;BME280;59606;52.138;5.424;2023-01-28T08:21:36;103290.66;;;1.94;81.15
71772;BME280;59606;52.138;5.424;2023-01-28T08:24:03;103296.66;;;1.94;80.95
71772;BME280;59606;52.138;5.424;2023-01-28T08:26:29;103296.69;;;1.96;81.33
71772;BME280;59606;52.138;5.424;2023-01-28T08:28:56;103299.28;;;1.97;81.46
71772;BME280;59606;52.138;5.424;2023-01-28T08:31:22;103301.84;;;1.97;81.71
71772;BME280;59606;52.138;5.424;2023-01-28T08:33:49;103303.63;;;1.98;81.18
71772;BME280;59606;52.138;5.424;2023-01-28T08:36:15;103312.19;;;1.99;81.32
71772;BME280;59606;52.138;5.424;2023-01-28T08:38:42;103308.78;;;2.00;81.43
71772;BME280;59606;52.138;5.424;2023-01-28T08:41:08;103299.41;;;2.02;81.10
71772;BME280;59606;52.138;5.424;2023-01-28T08:43:35;103311.41;;;2.03;81.07
71772;BME280;59606;52.138;5.424;2023-01-28T08:46:04;103312.34;;;2.06;80.94
71772;BME280;59606;52.138;5.424;2023-01-28T08:48:31;103313.19;;;2.07;80.54
71772;BME280;59606;52.138;5.424;2023-01-28T08:50:58;103323.53;;;2.08;80.82
71772;BME280;59606;52.138;5.424;2023-01-28T08:53:25;103316.75;;;2.12;80.86
71772;BME280;59606;52.138;5.424;2023-01-28T08:55:52;103331.34;;;2.15;80.61
71772;BME280;59606;52.138;5.424;2023-01-28T08:58:19;103339.94;;;2.15;80.29
71772;BME280;59606;52.138;5.424;2023-01-28T09:00:46;103330.53;;;2.17;80.31
71772;BME280;59606;52.138;5.424;2023-01-28T09:03:14;103329.72;;;2.18;80.35
71772;BME280;59606;52.138;5.424;2023-01-28T09:05:41;103339.22;;;2.22;80.31
71772;BME280;59606;52.138;5.424;2023-01-28T09:08:09;103333.22;;;2.22;80.27
71772;BME280;59606;52.138;5.424;2023-01-28T09:10:36;103344.47;;;2.27;80.48
71772;BME280;59606;52.138;5.424;2023-01-28T09:13:05;103329.94;;;2.29;80.52
71772;BME280;59606;52.138;5.424;2023-01-28T09:15:32;103314.59;;;2.33;80.43
71772;BME280;59606;52.138;5.424;2023-01-28T09:17:58;103327.44;;;2.32;80.02
71772;BME280;59606;52.138;5.424;2023-01-28T09:20:25;103332.66;;;2.36;79.56
71772;BME280;59606;52.138;5.424;2023-01-28T09:22:52;103341.22;;;2.37;79.56
71772;BME280;59606;52.138;5.424;2023-01-28T09:25:19;103333.63;;;2.43;79.73
71772;BME280;59606;52.138;5.424;2023-01-28T09:27:46;103342.25;;;2.45;79.45
71772;BME280;59606;52.138;5.424;2023-01-28T09:30:13;103348.34;;;2.49;79.43
71772;BME280;59606;52.138;5.424;2023-01-28T09:32:41;103341.50;;;2.51;78.93
71772;BME280;59606;52.138;5.424;2023-01-28T09:35:07;103345.78;;;2.50;78.59
71772;BME280;59606;52.138;5.424;2023-01-28T09:37:34;103362.06;;;2.49;78.51
71772;BME280;59606;52.138;5.424;2023-01-28T09:40:02;103360.41;;;2.53;78.70
71772;BME280;59606;52.138;5.424;2023-01-28T09:42:56;103366.50;;;2.58;79.15
71772;BME280;59606;52.138;5.424;2023-01-28T09:45:38;103362.31;;;2.62;79.26
71772;BME280;59606;52.138;5.424;2023-01-28T09:48:11;103358.88;;;2.63;78.95
71772;BME280;59606;52.138;5.424;2023-01-28T09:50:43;103358.88;;;2.63;78.45
71772;BME280;59606;52.138;5.424;2023-01-28T09:53:17;103355.38;;;2.59;78.45
71772;BME280;59606;52.138;5.424;2023-01-28T09:55:54;103347.56;;;2.54;78.77
71772;BME280;59606;52.138;5.424;2023-01-28T09:58:22;103349.13;;;2.46;78.68
71772;BME280;59606;52.138;5.424;2023-01-28T10:03:39;103371.56;;;2.52;78.48
71772;BME280;59606;52.138;5.424;2023-01-28T10:16:46;103359.50;;;2.98;77.84
71772;BME280;59606;52.138;5.424;2023-01-28T10:19:18;103357.94;;;3.06;77.74
71772;BME280;59606;52.138;5.424;2023-01-28T10:21:56;103358.94;;;3.14;77.01
71772;BME280;59606;52.138;5.424;2023-01-28T10:24:35;103356.41;;;3.16;77.10
71772;BME280;59606;52.138;5.424;2023-01-28T10:27:02;103347.88;;;3.20;77.07
71772;BME280;59606;52.138;5.424;2023-01-28T10:29:37;103354.81;;;3.24;77.27
71772;BME280;59606;52.138;5.424;2023-01-28T10:32:22;103350.63;;;3.30;77.21
71772;BME280;59606;52.138;5.424;2023-01-28T10:34:52;103351.56;;;3.37;77.04
71772;BME280;59606;52.138;5.424;2023-01-28T10:37:19;103341.28;;;3.37;76.12
71772;BME280;59606;52.138;5.424;2023-01-28T10:39:46;103347.34;;;3.41;75.74
71772;BME280;59606;52.138;5.424;2023-01-28T10:45:18;103347.34;;;3.41;74.48
71772;BME280;59606;52.138;5.424;2023-01-28T10:47:57;103330.16;;;3.40;74.62
71772;BME280;59606;52.138;5.424;2023-01-28T10:50:27;103331.97;;;3.47;75.25
71772;BME280;59606;52.138;5.424;2023-01-28T10:52:56;103332.06;;;3.53;74.83
71772;BME280;59606;52.138;5.424;2023-01-28T10:55:26;103322.72;;;3.60;75.07
71772;BME280;59606;52.138;5.424;2023-01-28T10:57:54;103322.78;;;3.64;74.71
71772;BME280;59606;52.138;5.424;2023-01-28T11:00:30;103318.38;;;3.56;74.27
71772;BME280;59606;52.138;5.424;2023-01-28T11:02:59;103310.63;;;3.56;73.97
71772;BME280;59606;52.138;5.424;2023-01-28T11:05:28;103295.22;;;3.60;73.87
71772;BME280;59606;52.138;5.424;2023-01-28T11:08:15;103289.31;;;3.66;74.15
71772;BME280;59606;52.138;5.424;2023-01-28T11:10:43;103283.28;;;3.67;74.07
71772;BME280;59606;52.138;5.424;2023-01-28T11:13:18;103281.56;;;3.67;73.68
71772;BME280;59606;52.138;5.424;2023-01-28T11:16:12;103282.47;;;3.69;73.43
71772;BME280;59606;52.138;5.424;2023-01-28T11:18:56;103262.75;;;3.74;73.58
71772;BME280;59606;52.138;5.424;2023-01-28T11:21:30;103252.47;;;3.76;73.05
71772;BME280;59606;52.138;5.424;2023-01-28T11:24:00;103243.03;;;3.78;72.70
71772;BME280;59606;52.138;5.424;2023-01-28T11:26:31;103238.78;;;3.82;73.15
71772;BME280;59606;52.138;5.424;2023-01-28T11:28:58;103244.78;;;3.82;72.29
71772;BME280;59606;52.138;5.424;2023-01-28T11:31:25;103246.53;;;3.83;72.79
71772;BME280;59606;52.138;5.424;2023-01-28T11:33:57;103227.69;;;3.89;72.61
71772;BME280;59606;52.138;5.424;2023-01-28T11:36:29;103225.19;;;3.93;72.18
71772;BME280;59606;52.138;5.424;2023-01-28T11:39:16;103222.59;;;3.95;73.01
71772;BME280;59606;52.138;5.424;2023-01-28T11:41:43;103206.34;;;4.00;72.71
71772;BME280;59606;52.138;5.424;2023-01-28T11:57:20;103233.19;;;4.21;72.18
71772;BME280;59606;52.138;5.424;2023-01-28T12:02:48;103242.75;;;4.30;71.81
71772;BME280;59606;52.138;5.424;2023-01-28T12:10:56;103240.22;;;4.36;71.47
71772;BME280;59606;52.138;5.424;2023-01-28T12:13:34;103244.56;;;4.37;72.13
71772;BME280;59606;52.138;5.424;2023-01-28T12:21:10;103246.34;;;4.44;71.50
71772;BME280;59606;52.138;5.424;2023-01-28T12:24:52;103248.09;;;4.48;71.67
71772;BME280;59606;52.138;5.424;2023-01-28T12:29:40;103257.66;;;4.58;71.66
71772;BME280;59606;52.138;5.424;2023-01-28T12:32:39;103252.47;;;4.57;71.28
71772;BME280;59606;52.138;5.424;2023-01-28T12:35:21;103241.28;;;4.59;71.80
71772;BME280;59606;52.138;5.424;2023-01-28T12:38:14;103237.06;;;4.64;71.86
71772;BME280;59606;52.138;5.424;2023-01-28T12:40:49;103230.16;;;4.65;71.15
71772;BME280;59606;52.138;5.424;2023-01-28T12:46:31;103225.88;;;4.68;71.48
71772;BME280;59606;52.138;5.424;2023-01-28T12:51:35;103219.88;;;4.72;71.38
71772;BME280;59606;52.138;5.424;2023-01-28T12:54:13;103217.34;;;4.76;70.95
71772;BME280;59606;52.138;5.424;2023-01-28T12:56:46;103211.34;;;4.78;70.32
71772;BME280;59606;52.138;5.424;2023-01-28T13:02:02;103190.75;;;4.89;71.19
71772;BME280;59606;52.138;5.424;2023-01-28T13:04:41;103184.75;;;4.91;71.02
71772;BME280;59606;52.138;5.424;2023-01-28T13:07:34;103181.28;;;4.92;69.90
71772;BME280;59606;52.138;5.424;2023-01-28T13:12:50;103159.81;;;4.93;69.91
71772;BME280;59606;52.138;5.424;2023-01-28T13:15:18;103158.94;;;4.94;69.88
71772;BME280;59606;52.138;5.424;2023-01-28T13:17:59;103163.25;;;4.94;70.20
71772;BME280;59606;52.138;5.424;2023-01-28T13:20:48;103157.19;;;4.92;70.07
71772;BME280;59606;52.138;5.424;2023-01-28T13:23:46;103165.75;;;4.85;70.19
71772;BME280;59606;52.138;5.424;2023-01-28T13:28:50;103162.31;;;4.80;70.32
71772;BME280;59606;52.138;5.424;2023-01-28T13:31:21;103160.56;;;4.77;70.21
71772;BME280;59606;52.138;5.424;2023-01-28T13:39:06;103157.13;;;4.80;70.25
71772;BME280;59606;52.138;5.424;2023-01-28T13:41:41;103165.69;;;4.76;70.29
71772;BME280;59606;52.138;5.424;2023-01-28T13:44:28;103166.53;;;4.71;70.42
71772;BME280;59606;52.138;5.424;2023-01-28T13:46:59;103165.66;;;4.71;70.75
71772;BME280;59606;52.138;5.424;2023-01-28T13:49:32;103166.50;;;4.67;70.21
71772;BME280;59606;52.138;5.424;2023-01-28T13:54:43;103161.25;;;4.59;70.96
71772;BME280;59606;52.138;5.424;2023-01-28T13:57:26;103158.66;;;4.53;70.60
71772;BME280;59606;52.138;5.424;2023-01-28T14:09:03;103180.97;;;4.48;71.94
71772;BME280;59606;52.138;5.424;2023-01-28T14:14:51;103205.06;;;4.48;72.01
71772;BME280;59606;52.138;5.424;2023-01-28T14:17:39;103198.19;;;4.49;71.57
71772;BME280;59606;52.138;5.424;2023-01-28T14:22:42;103189.59;;;4.48;71.48
71772;BME280;59606;52.138;5.424;2023-01-28T14:25:23;103184.44;;;4.50;72.00
71772;BME280;59606;52.138;5.424;2023-01-28T14:27:55;103183.56;;;4.48;71.49
71772;BME280;59606;52.138;5.424;2023-01-28T14:33:11;103171.44;;;4.38;71.97
71772;BME280;59606;52.138;5.424;2023-01-28T14:35:44;103167.97;;;4.34;71.94
71772;BME280;59606;52.138;5.424;2023-01-28T14:38:16;103173.13;;;4.33;71.63
71772;BME280;59606;52.138;5.424;2023-01-28T14:40:48;103170.53;;;4.34;72.10
71772;BME280;59606;52.138;5.424;2023-01-28T14:43:18;103178.28;;;4.36;72.37
71772;BME280;59606;52.138;5.424;2023-01-28T14:46:03;103174.00;;;4.36;72.36
71772;BME280;59606;52.138;5.424;2023-01-28T14:56:43;103175.66;;;4.27;72.15
71772;BME280;59606;52.138;5.424;2023-01-28T14:59:42;103181.63;;;4.24;72.02
71772;BME280;59606;52.138;5.424;2023-01-28T15:02:20;103190.19;;;4.21;72.69
71772;BME280;59606;52.138;5.424;2023-01-28T15:04:47;103191.94;;;4.19;73.15